sensor_id;sensor_type;location;lat;lon;timestamp;pressure;altitude;pressure_sealevel;temperature;humidity
63700;BME280;49845;47.130;142.766;2023-03-03T00:00:14;100717.13;;;-5.32;61.67
63700;BME280;49845;47.130;142.766;2023-03-03T00:02:44;100722.66;;;-5.08;60.71
63700;BME280;49845;47.130;142.766;2023-03-03T00:05:15;100726.06;;;-4.77;59.93
63700;BME280;49845;47.130;142.766;2023-03-03T00:07:45;100732.41;;;-4.52;58.60
63700;BME280;49845;47.130;142.766;2023-03-03T00:10:16;100728.59;;;-4.44;57.85
63700;BME280;49845;47.130;142.766;2023-03-03T00:12:48;100731.78;;;-4.64;58.45
63700;BME280;49845;47.130;142.766;2023-03-03T00:15:22;100729.00;;;-4.69;59.35
63700;BME280;49845;47.130;142.766;2023-03-03T00:17:53;100729.88;;;-4.68;59.29
63700;BME280;49845;47.130;142.766;2023-03-03T00:20:30;100738.63;;;-4.96;59.41
63700;BME280;49845;47.130;142.766;2023-03-03T00:23:19;100721.84;;;-5.24;59.49
63700;BME280;49845;47.130;142.766;2023-03-03T00:25:54;100730.94;;;-5.12;59.30
63700;BME280;49845;47.130;142.766;2023-03-03T00:28:30;100732.94;;;-5.38;58.90
63700;BME280;49845;47.130;142.766;2023-03-03T00:31:14;100733.00;;;-5.68;58.51
63700;BME280;49845;47.130;142.766;2023-03-03T00:33:47;100671.13;;;-6.13;59.02
63700;BME280;49845;47.130;142.766;2023-03-03T00:36:30;100707.00;;;-6.23;58.18
63700;BME280;49845;47.130;142.766;2023-03-03T00:39:19;100742.00;;;-6.04;58.96
63700;BME280;49845;47.130;142.766;2023-03-03T00:41:51;100734.63;;;-5.99;59.14
63700;BME280;49845;47.130;142.766;2023-03-03T00:44:42;100744.97;;;-5.81;59.63
63700;BME280;49845;47.130;142.766;2023-03-03T00:47:24;100733.69;;;-5.55;60.07
63700;BME280;49845;47.130;142.766;2023-03-03T00:50:25;100735.19;;;-5.28;60.47
63700;BME280;49845;47.130;142.766;2023-03-03T00:53:09;100758.84;;;-4.99;60.37
63700;BME280;49845;47.130;142.766;2023-03-03T00:55:40;100734.63;;;-4.74;60.01
63700;BME280;49845;47.130;142.766;2023-03-03T00:58:11;100726.13;;;-4.59;58.71
63700;BME280;49845;47.130;142.766;2023-03-03T01:00:41;100729.06;;;-4.51;58.05
63700;BME280;49845;47.130;142.766;2023-03-03T01:03:16;100736.25;;;-4.44;57.08
63700;BME280;49845;47.130;142.766;2023-03-03T01:05:47;100725.22;;;-4.26;56.62
63700;BME280;49845;47.130;142.766;2023-03-03T01:08:18;100720.88;;;-4.11;55.98
63700;BME280;49845;47.130;142.766;2023-03-03T01:10:51;100743.16;;;-3.91;56.21
63700;BME280;49845;47.130;142.766;2023-03-03T01:13:26;100737.91;;;-3.94;56.13
63700;BME280;49845;47.130;142.766;2023-03-03T01:15:58;100734.91;;;-4.03;56.11
63700;BME280;49845;47.130;142.766;2023-03-03T01:18:31;100740.84;;;-3.86;56.01
63700;BME280;49845;47.130;142.766;2023-03-03T01:21:01;100730.88;;;-3.81;55.67
63700;BME280;49845;47.130;142.766;2023-03-03T01:23:33;100753.34;;;-3.74;55.58
63700;BME280;49845;47.130;142.766;2023-03-03T01:26:05;100694.81;;;-3.87;54.94
63700;BME280;49845;47.130;142.766;2023-03-03T01:28:36;100737.31;;;-3.54;54.57
63700;BME280;49845;47.130;142.766;2023-03-03T01:31:07;100732.59;;;-3.44;54.15
63700;BME280;49845;47.130;142.766;2023-03-03T01:33:42;100729.13;;;-3.47;53.54
63700;BME280;49845;47.130;142.766;2023-03-03T01:36:12;100741.41;;;-3.39;54.14
63700;BME280;49845;47.130;142.766;2023-03-03T01:38:43;100742.19;;;-3.40;52.73
63700;BME280;49845;47.130;142.766;2023-03-03T01:41:13;100741.22;;;-3.42;52.32
63700;BME280;49845;47.130;142.766;2023-03-03T01:43:45;100749.25;;;-3.35;52.24
63700;BME280;49845;47.130;142.766;2023-03-03T01:46:37;100743.88;;;-3.41;51.19
63700;BME280;49845;47.130;142.766;2023-03-03T01:49:14;100737.56;;;-3.48;49.23
63700;BME280;49845;47.130;142.766;2023-03-03T01:51:48;100723.28;;;-3.44;47.65
63700;BME280;49845;47.130;142.766;2023-03-03T01:54:22;100734.44;;;-3.24;47.06
63700;BME280;49845;47.130;142.766;2023-03-03T01:56:58;100742.94;;;-3.06;43.24
63700;BME280;49845;47.130;142.766;2023-03-03T01:59:33;100734.75;;;-2.98;42.31
63700;BME280;49845;47.130;142.766;2023-03-03T02:02:05;100736.94;;;-2.88;41.64
63700;BME280;49845;47.130;142.766;2023-03-03T02:04:39;100735.19;;;-2.89;40.69
63700;BME280;49845;47.130;142.766;2023-03-03T02:07:10;100718.63;;;-2.78;43.14
63700;BME280;49845;47.130;142.766;2023-03-03T02:09:48;100731.75;;;-2.70;43.29
63700;BME280;49845;47.130;142.766;2023-03-03T02:12:22;100690.88;;;-3.08;44.16
63700;BME280;49845;47.130;142.766;2023-03-03T02:14:55;100599.97;;;-3.59;43.79
63700;BME280;49845;47.130;142.766;2023-03-03T02:17:25;100727.47;;;-2.71;45.02
63700;BME280;49845;47.130;142.766;2023-03-03T02:20:02;100733.66;;;-2.66;43.23
63700;BME280;49845;47.130;142.766;2023-03-03T02:22:43;100727.66;;;-2.67;43.53
63700;BME280;49845;47.130;142.766;2023-03-03T02:25:21;100731.44;;;-2.58;43.29
63700;BME280;49845;47.130;142.766;2023-03-03T02:27:56;100727.78;;;-2.64;40.52
63700;BME280;49845;47.130;142.766;2023-03-03T02:30:27;100714.34;;;-2.59;43.36
63700;BME280;49845;47.130;142.766;2023-03-03T02:32:57;100719.19;;;-2.66;44.67
63700;BME280;49845;47.130;142.766;2023-03-03T02:35:33;100717.56;;;-2.64;45.84
63700;BME280;49845;47.130;142.766;2023-03-03T02:38:18;100712.56;;;-2.61;46.15
63700;BME280;49845;47.130;142.766;2023-03-03T02:40:59;100715.78;;;-2.45;44.83
63700;BME280;49845;47.130;142.766;2023-03-03T02:43:40;100710.41;;;-2.32;44.34
63700;BME280;49845;47.130;142.766;2023-03-03T02:46:13;100709.91;;;-2.23;43.69
63700;BME280;49845;47.130;142.766;2023-03-03T02:48:44;100704.03;;;-2.21;44.18
63700;BME280;49845;47.130;142.766;2023-03-03T02:51:14;100705.94;;;-2.17;44.19
63700;BME280;49845;47.130;142.766;2023-03-03T02:53:45;100667.59;;;-2.55;43.39
63700;BME280;49845;47.130;142.766;2023-03-03T02:56:16;100701.38;;;-2.43;44.20
63700;BME280;49845;47.130;142.766;2023-03-03T02:58:48;100706.78;;;-2.37;43.95
63700;BME280;49845;47.130;142.766;2023-03-03T03:01:19;100675.78;;;-2.43;42.79
63700;BME280;49845;47.130;142.766;2023-03-03T03:03:50;100694.91;;;-2.35;42.40
63700;BME280;49845;47.130;142.766;2023-03-03T03:06:21;100568.81;;;-2.92;41.95
63700;BME280;49845;47.130;142.766;2023-03-03T03:08:51;100684.50;;;-2.19;41.55
63700;BME280;49845;47.130;142.766;2023-03-03T03:11:22;100681.44;;;-2.10;41.53
63700;BME280;49845;47.130;142.766;2023-03-03T03:13:56;100683.41;;;-2.04;40.24
63700;BME280;49845;47.130;142.766;2023-03-03T03:16:26;100680.69;;;-2.07;40.01
63700;BME280;49845;47.130;142.766;2023-03-03T03:18:57;100673.66;;;-1.92;40.24
63700;BME280;49845;47.130;142.766;2023-03-03T03:21:28;100663.84;;;-1.81;39.31
63700;BME280;49845;47.130;142.766;2023-03-03T03:23:59;100668.97;;;-1.81;38.78
63700;BME280;49845;47.130;142.766;2023-03-03T03:26:30;100670.88;;;-1.76;38.66
63700;BME280;49845;47.130;142.766;2023-03-03T03:29:02;100656.56;;;-1.70;38.79
63700;BME280;49845;47.130;142.766;2023-03-03T03:31:33;100662.63;;;-1.68;38.19
63700;BME280;49845;47.130;142.766;2023-03-03T03:34:04;100653.97;;;-1.72;39.22
63700;BME280;49845;47.130;142.766;2023-03-03T03:36:35;100670.31;;;-1.68;40.23
63700;BME280;49845;47.130;142.766;2023-03-03T03:39:07;100622.00;;;-2.03;39.60
63700;BME280;49845;47.130;142.766;2023-03-03T03:41:37;100659.16;;;-1.91;39.58
63700;BME280;49845;47.130;142.766;2023-03-03T03:44:10;100656.41;;;-1.96;38.51
63700;BME280;49845;47.130;142.766;2023-03-03T03:46:41;100650.47;;;-1.95;38.13
63700;BME280;49845;47.130;142.766;2023-03-03T03:49:11;100659.09;;;-1.93;39.03
63700;BME280;49845;47.130;142.766;2023-03-03T03:51:42;100660.72;;;-1.95;39.25
63700;BME280;49845;47.130;142.766;2023-03-03T03:54:13;100654.72;;;-1.96;38.40
63700;BME280;49845;47.130;142.766;2023-03-03T03:56:43;100660.72;;;-1.95;38.75
63700;BME280;49845;47.130;142.766;2023-03-03T03:59:16;100619.09;;;-2.12;40.43
63700;BME280;49845;47.130;142.766;2023-03-03T04:01:46;100661.63;;;-1.94;39.50
63700;BME280;49845;47.130;142.766;2023-03-03T04:04:17;100663.56;;;-1.87;39.43
63700;BME280;49845;47.130;142.766;2023-03-03T04:06:48;100664.59;;;-1.84;39.68
63700;BME280;49845;47.130;142.766;2023-03-03T04:09:18;100666.81;;;-1.70;39.28
63700;BME280;49845;47.130;142.766;2023-03-03T04:11:49;100658.94;;;-1.54;40.96
63700;BME280;49845;47.130;142.766;2023-03-03T04:14:22;100660.78;;;-1.50;39.99
63700;BME280;49845;47.130;142.766;2023-03-03T04:16:53;100665.78;;;-1.53;39.96
63700;BME280;49845;47.130;142.766;2023-03-03T04:19:24;100670.09;;;-1.75;39.50
63700;BME280;49845;47.130;142.766;2023-03-03T04:21:54;100665.97;;;-1.92;40.24
63700;BME280;49845;47.130;142.766;2023-03-03T04:24:25;100670.78;;;-2.00;41.87
63700;BME280;49845;47.130;142.766;2023-03-03T04:26:56;100664.53;;;-2.06;41.71
63700;BME280;49845;47.130;142.766;2023-03-03T04:29:28;100671.06;;;-2.34;43.48
63700;BME280;49845;47.130;142.766;2023-03-03T04:31:58;100667.06;;;-2.48;45.36
63700;BME280;49845;47.130;142.766;2023-03-03T04:34:29;100671.94;;;-2.54;44.75
63700;BME280;49845;47.130;142.766;2023-03-03T04:37:00;100680.78;;;-2.46;45.42
63700;BME280;49845;47.130;142.766;2023-03-03T04:39:30;100634.22;;;-2.58;44.89
63700;BME280;49845;47.130;142.766;2023-03-03T04:42:01;100670.66;;;-2.24;44.90
63700;BME280;49845;47.130;142.766;2023-03-03T04:44:35;100681.31;;;-2.13;45.90
63700;BME280;49845;47.130;142.766;2023-03-03T04:47:06;100680.22;;;-2.20;45.42
63700;BME280;49845;47.130;142.766;2023-03-03T04:49:36;100683.84;;;-2.14;46.60
63700;BME280;49845;47.130;142.766;2023-03-03T04:52:07;100678.56;;;-2.18;45.65
63700;BME280;49845;47.130;142.766;2023-03-03T04:54:38;100682.94;;;-2.15;45.82
63700;BME280;49845;47.130;142.766;2023-03-03T04:57:09;100666.06;;;-2.31;46.51
63700;BME280;49845;47.130;142.766;2023-03-03T04:59:41;100694.34;;;-2.28;45.13
63700;BME280;49845;47.130;142.766;2023-03-03T05:02:11;100663.53;;;-2.50;45.26
63700;BME280;49845;47.130;142.766;2023-03-03T05:04:42;100662.28;;;-2.60;45.68
63700;BME280;49845;47.130;142.766;2023-03-03T05:07:13;100704.63;;;-2.47;45.75
63700;BME280;49845;47.130;142.766;2023-03-03T05:09:45;100711.72;;;-2.61;46.21
63700;BME280;49845;47.130;142.766;2023-03-03T05:12:15;100696.69;;;-2.73;47.41
63700;BME280;49845;47.130;142.766;2023-03-03T05:14:47;100702.88;;;-2.87;48.70
63700;BME280;49845;47.130;142.766;2023-03-03T05:17:18;100703.81;;;-2.85;48.71
63700;BME280;49845;47.130;142.766;2023-03-03T05:19:49;100702.59;;;-2.93;50.34
63700;BME280;49845;47.130;142.766;2023-03-03T05:22:19;100716.00;;;-2.99;50.23
63700;BME280;49845;47.130;142.766;2023-03-03T05:24:50;100701.22;;;-3.24;50.21
63700;BME280;49845;47.130;142.766;2023-03-03T05:27:21;100723.41;;;-3.23;51.99
63700;BME280;49845;47.130;142.766;2023-03-03T05:29:53;100727.34;;;-3.48;52.63
63700;BME280;49845;47.130;142.766;2023-03-03T05:32:24;100726.63;;;-3.63;53.25
63700;BME280;49845;47.130;142.766;2023-03-03T05:34:54;100627.91;;;-4.16;53.76
63700;BME280;49845;47.130;142.766;2023-03-03T05:37:25;100732.56;;;-3.64;53.51
63700;BME280;49845;47.130;142.766;2023-03-03T05:39:56;100737.56;;;-3.83;53.98
63700;BME280;49845;47.130;142.766;2023-03-03T05:42:26;100747.63;;;-3.86;54.29
63700;BME280;49845;47.130;142.766;2023-03-03T05:44:58;100746.88;;;-4.02;54.15
63700;BME280;49845;47.130;142.766;2023-03-03T05:47:29;100754.47;;;-3.85;53.43
63700;BME280;49845;47.130;142.766;2023-03-03T05:50:00;100763.72;;;-3.71;53.86
63700;BME280;49845;47.130;142.766;2023-03-03T05:52:31;100768.00;;;-3.70;52.89
63700;BME280;49845;47.130;142.766;2023-03-03T05:55:02;100765.31;;;-3.73;52.84
63700;BME280;49845;47.130;142.766;2023-03-03T05:57:32;100771.50;;;-3.68;53.38
63700;BME280;49845;47.130;142.766;2023-03-03T06:00:06;100770.56;;;-3.70;53.58
63700;BME280;49845;47.130;142.766;2023-03-03T06:02:37;100776.50;;;-3.87;52.63
63700;BME280;49845;47.130;142.766;2023-03-03T06:05:08;100767.44;;;-3.99;52.68
63700;BME280;49845;47.130;142.766;2023-03-03T06:07:39;100785.38;;;-3.97;53.23
63700;BME280;49845;47.130;142.766;2023-03-03T06:10:10;100712.34;;;-4.46;53.31
63700;BME280;49845;47.130;142.766;2023-03-03T06:12:41;100785.66;;;-4.09;53.83
63700;BME280;49845;47.130;142.766;2023-03-03T06:15:13;100779.06;;;-4.22;54.77
63700;BME280;49845;47.130;142.766;2023-03-03T06:17:44;100795.72;;;-4.28;55.20
63700;BME280;49845;47.130;142.766;2023-03-03T06:20:14;100798.41;;;-4.58;55.74
63700;BME280;49845;47.130;142.766;2023-03-03T06:22:45;100787.19;;;-4.93;57.26
63700;BME280;49845;47.130;142.766;2023-03-03T06:25:16;100799.72;;;-5.12;58.23
63700;BME280;49845;47.130;142.766;2023-03-03T06:27:47;100770.53;;;-5.34;58.75
63700;BME280;49845;47.130;142.766;2023-03-03T06:30:20;100804.34;;;-5.22;58.63
63700;BME280;49845;47.130;142.766;2023-03-03T06:32:50;100817.97;;;-5.36;59.83
63700;BME280;49845;47.130;142.766;2023-03-03T06:35:21;100820.41;;;-5.52;60.55
63700;BME280;49845;47.130;142.766;2023-03-03T06:37:51;100822.91;;;-5.69;61.34
63700;BME280;49845;47.130;142.766;2023-03-03T06:40:22;100826.03;;;-5.73;62.03
63700;BME280;49845;47.130;142.766;2023-03-03T06:42:52;100825.25;;;-5.72;61.90
63700;BME280;49845;47.130;142.766;2023-03-03T06:45:25;100747.97;;;-6.18;62.00
63700;BME280;49845;47.130;142.766;2023-03-03T06:47:55;100826.91;;;-5.57;62.25
63700;BME280;49845;47.130;142.766;2023-03-03T06:50:26;100828.88;;;-5.53;62.01
63700;BME280;49845;47.130;142.766;2023-03-03T06:53:03;100834.28;;;-5.47;62.32
63700;BME280;49845;47.130;142.766;2023-03-03T06:55:37;100841.16;;;-5.46;62.18
63700;BME280;49845;47.130;142.766;2023-03-03T06:58:11;100851.25;;;-5.48;62.32
63700;BME280;49845;47.130;142.766;2023-03-03T07:00:45;100849.78;;;-5.44;62.46
63700;BME280;49845;47.130;142.766;2023-03-03T07:03:21;100829.13;;;-5.64;62.49
63700;BME280;49845;47.130;142.766;2023-03-03T07:05:53;100857.31;;;-5.60;62.19
63700;BME280;49845;47.130;142.766;2023-03-03T07:08:24;100861.50;;;-5.76;62.65
63700;BME280;49845;47.130;142.766;2023-03-03T07:10:55;100849.19;;;-6.13;63.49
63700;BME280;49845;47.130;142.766;2023-03-03T07:13:28;100866.84;;;-6.29;64.24
63700;BME280;49845;47.130;142.766;2023-03-03T07:16:04;100870.81;;;-6.47;64.89
63700;BME280;49845;47.130;142.766;2023-03-03T07:18:41;100872.41;;;-6.63;65.38
63700;BME280;49845;47.130;142.766;2023-03-03T07:21:22;100878.28;;;-6.64;65.47
63700;BME280;49845;47.130;142.766;2023-03-03T07:23:54;100891.41;;;-6.71;65.19
63700;BME280;49845;47.130;142.766;2023-03-03T07:26:28;100887.56;;;-6.78;65.79
63700;BME280;49845;47.130;142.766;2023-03-03T07:29:02;100887.69;;;-6.76;65.79
63700;BME280;49845;47.130;142.766;2023-03-03T07:31:36;100895.88;;;-6.80;65.68
63700;BME280;49845;47.130;142.766;2023-03-03T07:34:18;100890.81;;;-6.80;65.56
63700;BME280;49845;47.130;142.766;2023-03-03T07:36:52;100854.47;;;-7.06;65.66
63700;BME280;49845;47.130;142.766;2023-03-03T07:39:29;100911.13;;;-6.80;66.00
63700;BME280;49845;47.130;142.766;2023-03-03T07:42:16;100909.94;;;-6.72;66.32
63700;BME280;49845;47.130;142.766;2023-03-03T07:44:51;100911.91;;;-6.68;66.01
63700;BME280;49845;47.130;142.766;2023-03-03T07:47:25;100916.69;;;-6.73;66.20
63700;BME280;49845;47.130;142.766;2023-03-03T07:49:58;100927.44;;;-6.77;66.42
63700;BME280;49845;47.130;142.766;2023-03-03T07:52:34;100931.84;;;-6.74;66.65
63700;BME280;49845;47.130;142.766;2023-03-03T07:55:22;100823.50;;;-7.40;66.89
63700;BME280;49845;47.130;142.766;2023-03-03T07:57:56;100922.06;;;-6.95;66.75
63700;BME280;49845;47.130;142.766;2023-03-03T08:03:48;100947.38;;;-7.09;67.39
63700;BME280;49845;47.130;142.766;2023-03-03T08:06:38;100938.88;;;-7.23;67.61
63700;BME280;49845;47.130;142.766;2023-03-03T08:12:35;100957.22;;;-7.52;68.71
63700;BME280;49845;47.130;142.766;2023-03-03T08:15:23;100958.06;;;-7.65;69.12
63700;BME280;49845;47.130;142.766;2023-03-03T08:18:00;100967.44;;;-7.64;69.40
63700;BME280;49845;47.130;142.766;2023-03-03T08:20:56;100975.63;;;-7.68;70.08
63700;BME280;49845;47.130;142.766;2023-03-03T08:23:35;100982.13;;;-7.72;70.40
63700;BME280;49845;47.130;142.766;2023-03-03T08:26:09;100990.34;;;-7.76;70.48
63700;BME280;49845;47.130;142.766;2023-03-03T08:28:40;100989.22;;;-7.79;70.78
63700;BME280;49845;47.130;142.766;2023-03-03T08:31:10;100989.44;;;-7.76;70.64
63700;BME280;49845;47.130;142.766;2023-03-03T08:33:57;101007.00;;;-7.79;70.41
63700;BME280;49845;47.130;142.766;2023-03-03T08:36:29;101004.41;;;-7.93;70.35
63700;BME280;49845;47.130;142.766;2023-03-03T08:39:02;101004.75;;;-8.00;70.24
63700;BME280;49845;47.130;142.766;2023-03-03T08:41:33;101020.16;;;-7.97;70.56
63700;BME280;49845;47.130;142.766;2023-03-03T08:44:04;101027.00;;;-7.96;70.87
63700;BME280;49845;47.130;142.766;2023-03-03T08:46:35;101014.88;;;-8.00;70.94
63700;BME280;49845;47.130;142.766;2023-03-03T08:49:06;101031.66;;;-8.02;70.89
63700;BME280;49845;47.130;142.766;2023-03-03T08:51:39;101038.25;;;-8.04;71.26
63700;BME280;49845;47.130;142.766;2023-03-03T08:54:09;101042.91;;;-8.10;71.35
63700;BME280;49845;47.130;142.766;2023-03-03T08:56:40;101035.84;;;-8.14;71.83
63700;BME280;49845;47.130;142.766;2023-03-03T08:59:11;101046.78;;;-8.15;72.01
63700;BME280;49845;47.130;142.766;2023-03-03T09:01:42;101035.44;;;-8.20;71.79
63700;BME280;49845;47.130;142.766;2023-03-03T09:04:13;101050.06;;;-8.16;71.90
63700;BME280;49845;47.130;142.766;2023-03-03T09:06:46;101061.22;;;-8.14;71.82
63700;BME280;49845;47.130;142.766;2023-03-03T09:09:16;101058.53;;;-8.04;72.14
63700;BME280;49845;47.130;142.766;2023-03-03T09:11:51;101073.75;;;-8.04;72.04
63700;BME280;49845;47.130;142.766;2023-03-03T09:14:28;101001.09;;;-8.52;71.93
63700;BME280;49845;47.130;142.766;2023-03-03T09:16:59;101071.13;;;-8.17;71.93
63700;BME280;49845;47.130;142.766;2023-03-03T09:19:32;101072.59;;;-8.21;72.02
63700;BME280;49845;47.130;142.766;2023-03-03T09:22:21;101091.44;;;-8.17;71.93
63700;BME280;49845;47.130;142.766;2023-03-03T09:24:58;101084.16;;;-8.25;72.12
63700;BME280;49845;47.130;142.766;2023-03-03T09:27:30;101089.22;;;-8.25;72.16
63700;BME280;49845;47.130;142.766;2023-03-03T09:30:14;101098.69;;;-8.10;72.07
63700;BME280;49845;47.130;142.766;2023-03-03T09:32:57;101098.69;;;-8.22;71.65
63700;BME280;49845;47.130;142.766;2023-03-03T09:35:34;101091.88;;;-8.35;71.47
63700;BME280;49845;47.130;142.766;2023-03-03T09:38:23;101113.59;;;-8.38;71.80
63700;BME280;49845;47.130;142.766;2023-03-03T09:47:43;101082.81;;;-8.78;72.89
63700;BME280;49845;47.130;142.766;2023-03-03T09:50:26;101121.94;;;-8.51;72.90
63700;BME280;49845;47.130;142.766;2023-03-03T09:53:15;101124.94;;;-8.45;72.88
63700;BME280;49845;47.130;142.766;2023-03-03T09:55:57;101135.31;;;-8.42;73.10
63700;BME280;49845;47.130;142.766;2023-03-03T09:58:43;101131.56;;;-8.47;73.36
63700;BME280;49845;47.130;142.766;2023-03-03T10:01:39;101080.59;;;-8.74;73.91
63700;BME280;49845;47.130;142.766;2023-03-03T10:04:43;101149.97;;;-8.14;74.04
63700;BME280;49845;47.130;142.766;2023-03-03T10:07:27;101150.53;;;-8.18;74.22
63700;BME280;49845;47.130;142.766;2023-03-03T10:10:19;101150.09;;;-8.13;75.25
63700;BME280;49845;47.130;142.766;2023-03-03T10:13:14;101115.22;;;-8.39;75.63
63700;BME280;49845;47.130;142.766;2023-03-03T10:16:00;101165.06;;;-8.28;76.18
63700;BME280;49845;47.130;142.766;2023-03-03T10:18:43;101166.38;;;-8.33;76.58
63700;BME280;49845;47.130;142.766;2023-03-03T10:21:23;101161.09;;;-8.36;77.33
63700;BME280;49845;47.130;142.766;2023-03-03T10:24:05;101162.63;;;-8.50;77.74
63700;BME280;49845;47.130;142.766;2023-03-03T10:27:07;101167.03;;;-8.47;78.25
63700;BME280;49845;47.130;142.766;2023-03-03T10:30:08;101165.28;;;-8.48;78.02
63700;BME280;49845;47.130;142.766;2023-03-03T10:33:31;101155.56;;;-8.65;78.27
63700;BME280;49845;47.130;142.766;2023-03-03T10:36:22;101170.50;;;-8.69;78.40
63700;BME280;49845;47.130;142.766;2023-03-03T10:43:14;101174.91;;;-8.78;78.18
63700;BME280;49845;47.130;142.766;2023-03-03T10:46:10;101172.94;;;-8.70;78.52
63700;BME280;49845;47.130;142.766;2023-03-03T10:49:05;101172.38;;;-8.78;78.50
63700;BME280;49845;47.130;142.766;2023-03-03T10:52:02;101176.41;;;-8.80;78.33
63700;BME280;49845;47.130;142.766;2023-03-03T10:54:47;101180.09;;;-8.98;78.80
63700;BME280;49845;47.130;142.766;2023-03-03T10:57:28;101182.66;;;-9.08;79.24
63700;BME280;49845;47.130;142.766;2023-03-03T11:00:21;101188.56;;;-9.20;79.28
63700;BME280;49845;47.130;142.766;2023-03-03T11:03:26;101184.09;;;-9.34;79.54
63700;BME280;49845;47.130;142.766;2023-03-03T11:06:03;101165.06;;;-9.51;79.86
63700;BME280;49845;47.130;142.766;2023-03-03T11:08:41;101182.97;;;-9.38;80.30
63700;BME280;49845;47.130;142.766;2023-03-03T11:11:21;101185.88;;;-9.33;80.22
63700;BME280;49845;47.130;142.766;2023-03-03T11:14:04;101185.88;;;-9.33;79.96
63700;BME280;49845;47.130;142.766;2023-03-03T11:16:52;101178.34;;;-9.43;79.43
63700;BME280;49845;47.130;142.766;2023-03-03T11:19:45;101199.38;;;-9.55;79.66
63700;BME280;49845;47.130;142.766;2023-03-03T11:22:33;101167.09;;;-9.89;79.31
63700;BME280;49845;47.130;142.766;2023-03-03T11:25:26;101203.88;;;-9.83;79.07
63700;BME280;49845;47.130;142.766;2023-03-03T11:28:26;101202.00;;;-9.85;79.12
63700;BME280;49845;47.130;142.766;2023-03-03T11:31:10;101206.50;;;-9.71;79.36
63700;BME280;49845;47.130;142.766;2023-03-03T11:33:54;101214.81;;;-9.62;79.12
63700;BME280;49845;47.130;142.766;2023-03-03T11:36:31;101206.19;;;-9.53;78.89
63700;BME280;49845;47.130;142.766;2023-03-03T11:39:07;101192.28;;;-9.59;78.33
63700;BME280;49845;47.130;142.766;2023-03-03T11:41:41;101204.19;;;-9.58;77.83
63700;BME280;49845;47.130;142.766;2023-03-03T11:44:22;101172.78;;;-9.82;77.25
63700;BME280;49845;47.130;142.766;2023-03-03T11:46:58;101191.72;;;-9.77;76.47
63700;BME280;49845;47.130;142.766;2023-03-03T11:49:38;101219.69;;;-9.75;75.74
63700;BME280;49845;47.130;142.766;2023-03-03T11:52:22;101194.16;;;-9.99;75.55
63700;BME280;49845;47.130;142.766;2023-03-03T11:55:01;101208.34;;;-9.90;74.99
63700;BME280;49845;47.130;142.766;2023-03-03T11:57:37;101179.81;;;-10.20;75.09
63700;BME280;49845;47.130;142.766;2023-03-03T12:00:25;101170.91;;;-10.37;74.32
63700;BME280;49845;47.130;142.766;2023-03-03T12:03:07;101224.53;;;-10.09;74.45
63700;BME280;49845;47.130;142.766;2023-03-03T12:05:49;101223.91;;;-10.16;74.66
63700;BME280;49845;47.130;142.766;2023-03-03T12:11:24;101213.75;;;-9.96;74.98
63700;BME280;49845;47.130;142.766;2023-03-03T12:14:00;101224.50;;;-9.99;74.38
63700;BME280;49845;47.130;142.766;2023-03-03T12:16:45;101233.41;;;-10.24;73.54
63700;BME280;49845;47.130;142.766;2023-03-03T12:19:37;101231.94;;;-10.43;73.31
63700;BME280;49845;47.130;142.766;2023-03-03T12:22:22;101242.66;;;-10.55;73.47
63700;BME280;49845;47.130;142.766;2023-03-03T12:25:21;101241.50;;;-10.59;74.00
63700;BME280;49845;47.130;142.766;2023-03-03T12:27:59;101230.91;;;-10.65;74.28
63700;BME280;49845;47.130;142.766;2023-03-03T12:30:56;101226.09;;;-10.82;73.94
63700;BME280;49845;47.130;142.766;2023-03-03T12:33:42;101239.75;;;-10.60;74.70
63700;BME280;49845;47.130;142.766;2023-03-03T12:36:30;101228.63;;;-10.72;74.37
63700;BME280;49845;47.130;142.766;2023-03-03T12:39:11;101224.03;;;-10.87;74.45
63700;BME280;49845;47.130;142.766;2023-03-03T12:42:07;101251.09;;;-10.86;74.54
63700;BME280;49845;47.130;142.766;2023-03-03T12:44:45;101234.81;;;-11.18;73.90
63700;BME280;49845;47.130;142.766;2023-03-03T12:47:23;101242.34;;;-11.29;74.08
63700;BME280;49845;47.130;142.766;2023-03-03T12:50:15;101232.34;;;-11.66;73.92
63700;BME280;49845;47.130;142.766;2023-03-03T12:52:55;101255.75;;;-11.78;74.68
63700;BME280;49845;47.130;142.766;2023-03-03T12:55:46;101250.69;;;-11.88;75.85
63700;BME280;49845;47.130;142.766;2023-03-03T12:58:28;101249.28;;;-12.03;76.28
63700;BME280;49845;47.130;142.766;2023-03-03T13:01:12;101257.88;;;-12.01;77.55
63700;BME280;49845;47.130;142.766;2023-03-03T13:03:54;101215.31;;;-12.17;78.14
63700;BME280;49845;47.130;142.766;2023-03-03T13:06:30;101263.75;;;-11.92;78.85
63700;BME280;49845;47.130;142.766;2023-03-03T13:09:12;101241.28;;;-11.99;79.88
63700;BME280;49845;47.130;142.766;2023-03-03T13:12:00;101195.72;;;-12.30;79.67
63700;BME280;49845;47.130;142.766;2023-03-03T13:14:40;101247.53;;;-12.04;79.68
63700;BME280;49845;47.130;142.766;2023-03-03T13:17:21;101246.97;;;-12.10;79.55
63700;BME280;49845;47.130;142.766;2023-03-03T13:19:56;101262.25;;;-11.90;80.24
63700;BME280;49845;47.130;142.766;2023-03-03T13:22:38;101264.53;;;-11.83;80.49
63700;BME280;49845;47.130;142.766;2023-03-03T13:25:36;101178.22;;;-12.47;80.52
63700;BME280;49845;47.130;142.766;2023-03-03T13:28:16;101264.47;;;-11.93;80.50
63700;BME280;49845;47.130;142.766;2023-03-03T13:30:54;101270.22;;;-12.04;80.26
63700;BME280;49845;47.130;142.766;2023-03-03T13:33:29;101230.22;;;-12.29;80.99
63700;BME280;49845;47.130;142.766;2023-03-03T13:36:05;101270.00;;;-11.97;81.59